Time;durP1;ratioP1;P1;durP2;ratioP2;P2;SDS_P1;SDS_P2;PMS_P1;PMS_P2;Temp;Humidity;BMP_temperature;BMP_pressure;BME280_temperature;BME280_humidity;BME280_pressure;Samples;Min_cycle;Max_cycle;Signal;HPM_P1;HPM_P2
2021/12/19 00:00:45;;;;;;;46.40;16.20;;;0.80;99.90;;;;;;5053572;28;20188;-68
2021/12/19 00:08:52;;;;;;;42.67;15.03;;;0.90;99.90;;;;;;5053357;28;20426;-67
2021/12/19 00:11:22;;;;;;;39.93;15.30;;;0.80;99.90;;;;;;5053536;28;20561;-68
2021/12/19 00:13:49;;;;;;;36.87;13.90;;;0.80;99.90;;;;;;5051445;28;20850;-70
2021/12/19 00:16:15;;;;;;;41.53;14.67;;;0.80;99.90;;;;;;5048213;28;20526;-68
2021/12/19 00:18:46;;;;;;;27.97;13.17;;;0.80;99.90;;;;;;5056536;28;20866;-69
2021/12/19 00:21:12;;;;;;;32.90;13.70;;;0.80;99.90;;;;;;5043426;28;20486;-68
2021/12/19 00:23:38;;;;;;;37.03;14.70;;;0.80;99.90;;;;;;5055459;28;20427;-68
2021/12/19 00:26:04;;;;;;;37.63;14.80;;;0.70;99.90;;;;;;5047378;28;20459;-68
2021/12/19 00:28:30;;;;;;;32.30;11.80;;;0.70;99.90;;;;;;5053177;28;20446;-67
2021/12/19 00:30:55;;;;;;;34.53;13.27;;;0.70;99.90;;;;;;5050262;28;20549;-68
2021/12/19 00:33:21;;;;;;;30.30;14.17;;;0.80;99.90;;;;;;5048124;28;20654;-68
2021/12/19 00:35:47;;;;;;;31.57;12.27;;;0.80;99.90;;;;;;5048461;28;20182;-68
2021/12/19 00:38:13;;;;;;;40.00;15.40;;;0.70;99.90;;;;;;5050075;28;20622;-68
2021/12/19 00:40:39;;;;;;;39.33;15.20;;;0.70;99.90;;;;;;5052471;28;20182;-68
2021/12/19 00:43:09;;;;;;;43.30;11.17;;;0.70;99.90;;;;;;5054630;28;20798;-68
2021/12/19 00:45:36;;;;;;;36.27;13.40;;;0.70;99.90;;;;;;5052831;28;20934;-68
2021/12/19 00:48:05;;;;;;;35.50;12.70;;;0.70;99.90;;;;;;5055682;28;20476;-68
2021/12/19 00:50:32;;;;;;;43.80;14.50;;;0.70;99.90;;;;;;5054163;28;20850;-68
2021/12/19 00:52:58;;;;;;;36.23;13.20;;;0.60;99.90;;;;;;5051627;28;20412;-68
2021/12/19 00:55:27;;;;;;;62.73;14.57;;;0.60;99.90;;;;;;5054465;28;20432;-68
2021/12/19 00:57:53;;;;;;;58.90;14.33;;;0.60;99.90;;;;;;5058499;28;20423;-68
2021/12/19 01:00:22;;;;;;;37.63;11.63;;;0.60;99.90;;;;;;5055094;28;20475;-68
2021/12/19 01:02:51;;;;;;;44.50;13.60;;;0.60;99.90;;;;;;5055358;28;20422;-68
2021/12/19 01:05:17;;;;;;;45.73;12.47;;;0.60;99.90;;;;;;5054915;28;20464;-68
2021/12/19 01:07:43;;;;;;;37.30;13.73;;;0.60;99.90;;;;;;5055718;28;20415;-68
2021/12/19 01:10:09;;;;;;;47.60;16.03;;;0.60;99.90;;;;;;5055729;28;20943;-68
2021/12/19 01:12:38;;;;;;;51.10;14.30;;;0.70;99.90;;;;;;5055776;28;20419;-68
2021/12/19 01:15:11;;;;;;;38.90;13.90;;;0.60;99.90;;;;;;5053897;28;20424;-68
2021/12/19 01:17:36;;;;;;;38.70;13.17;;;0.60;99.90;;;;;;5053165;28;20427;-68
2021/12/19 01:20:11;;;;;;;51.73;13.90;;;0.50;99.90;;;;;;5057132;28;20446;-68
2021/12/19 01:22:36;;;;;;;45.57;14.60;;;0.50;99.90;;;;;;5060665;28;21054;-69
2021/12/19 01:25:03;;;;;;;41.47;12.13;;;0.50;99.90;;;;;;5052818;28;20456;-68
2021/12/19 01:27:28;;;;;;;30.37;12.30;;;0.50;99.90;;;;;;5061619;28;20199;-68
2021/12/19 01:29:54;;;;;;;30.70;11.13;;;0.50;99.90;;;;;;5057418;28;20442;-68
2021/12/19 01:32:20;;;;;;;37.33;8.80;;;0.50;99.90;;;;;;5048240;28;20255;-68
2021/12/19 01:34:45;;;;;;;28.80;11.83;;;0.30;99.90;;;;;;5050809;28;20190;-68
2021/12/19 01:37:13;;;;;;;30.20;10.73;;;0.30;99.90;;;;;;5050084;28;20177;-68
2021/12/19 01:39:39;;;;;;;44.13;9.90;;;0.30;99.90;;;;;;5051106;28;20181;-68
2021/12/19 01:42:09;;;;;;;26.63;9.90;;;0.30;99.90;;;;;;5051525;28;20426;-68
2021/12/19 01:44:34;;;;;;;26.53;10.90;;;0.30;99.90;;;;;;5046531;28;20189;-68
2021/12/19 01:47:00;;;;;;;35.13;13.40;;;0.20;99.90;;;;;;5051018;28;20464;-68
2021/12/19 01:49:26;;;;;;;43.37;13.70;;;0.30;99.90;;;;;;5052889;28;20226;-68
2021/12/19 01:51:52;;;;;;;47.10;14.97;;;0.30;99.90;;;;;;5052320;28;20213;-68
2021/12/19 01:54:18;;;;;;;38.20;13.70;;;0.30;99.90;;;;;;5049935;28;20269;-68
2021/12/19 01:56:43;;;;;;;41.17;16.20;;;0.30;99.90;;;;;;5052084;28;20192;-68
2021/12/19 01:59:10;;;;;;;64.27;15.00;;;0.30;99.90;;;;;;5050948;28;20455;-68
2021/12/19 02:01:44;;;;;;;47.80;15.67;;;0.30;99.90;;;;;;5053270;28;20194;-68
2021/12/19 02:04:11;;;;;;;49.23;13.40;;;0.20;99.90;;;;;;5053465;28;20501;-68
2021/12/19 02:06:37;;;;;;;47.37;15.63;;;0.20;99.90;;;;;;5049331;28;20571;-68
2021/12/19 02:09:07;;;;;;;42.27;12.57;;;0.20;99.90;;;;;;5054348;28;20512;-68
2021/12/19 02:11:35;;;;;;;33.53;13.17;;;0.20;99.90;;;;;;5056277;28;20188;-68
2021/12/19 02:14:02;;;;;;;53.10;16.07;;;0.20;99.90;;;;;;5060801;28;20431;-68
2021/12/19 02:16:28;;;;;;;43.20;14.80;;;0.20;99.90;;;;;;5049617;28;20431;-67
2021/12/19 02:18:54;;;;;;;61.50;15.63;;;0.30;99.90;;;;;;5050178;28;20428;-67
2021/12/19 02:21:20;;;;;;;40.40;14.23;;;0.30;99.90;;;;;;5049327;28;20448;-68
2021/12/19 02:23:46;;;;;;;59.50;15.77;;;0.30;99.90;;;;;;5051092;28;21160;-68
2021/12/19 02:26:14;;;;;;;46.23;15.27;;;0.30;99.90;;;;;;5050153;28;20301;-68
2021/12/19 02:28:40;;;;;;;44.53;13.33;;;0.30;99.90;;;;;;5051590;28;20231;-68
2021/12/19 02:31:05;;;;;;;43.47;14.33;;;0.30;99.90;;;;;;5049989;28;20909;-68
2021/12/19 02:33:35;;;;;;;33.80;11.97;;;0.30;99.90;;;;;;5051144;28;20185;-68
2021/12/19 02:36:17;;;;;;;41.63;12.57;;;0.20;99.90;;;;;;5049392;28;20328;-68
2021/12/19 02:49:23;;;;;;;45.43;13.10;;;0.20;99.90;;;;;;5050908;28;20427;-68
2021/12/19 02:51:51;;;;;;;36.40;12.50;;;0.10;99.90;;;;;;5054029;28;21007;-68
2021/12/19 02:54:18;;;;;;;32.53;13.97;;;0.10;99.90;;;;;;5052229;28;20423;-68
2021/12/19 02:56:44;;;;;;;40.83;13.90;;;0.10;99.90;;;;;;5048800;28;20431;-68
2021/12/19 02:59:10;;;;;;;27.30;9.53;;;0.20;99.90;;;;;;5055559;28;20917;-68
2021/12/19 03:01:36;;;;;;;36.80;8.80;;;0.10;99.90;;;;;;5054856;28;20419;-68
2021/12/19 03:04:01;;;;;;;29.73;10.67;;;0.00;99.90;;;;;;5054832;28;20678;-68
2021/12/19 03:06:27;;;;;;;48.03;13.27;;;0.00;99.90;;;;;;5057349;28;20209;-68
2021/12/19 03:08:53;;;;;;;23.47;10.17;;;0.00;99.90;;;;;;5051423;28;20213;-68
2021/12/19 03:19:50;;;;;;;37.90;10.30;;;0.00;99.90;;;;;;5049794;28;20458;-65
2021/12/19 03:22:15;;;;;;;32.43;11.87;;;0.00;99.90;;;;;;5051203;28;20948;-65
2021/12/19 03:24:41;;;;;;;30.20;10.90;;;0.00;99.90;;;;;;5050329;28;20902;-67
2021/12/19 03:27:06;;;;;;;39.13;12.33;;;0.00;99.90;;;;;;5049546;28;20260;-67
2021/12/19 03:29:32;;;;;;;29.47;10.17;;;0.00;99.90;;;;;;5048772;28;20331;-66
2021/12/19 03:31:58;;;;;;;36.47;11.47;;;0.00;99.90;;;;;;5050442;28;20229;-66
2021/12/19 03:34:23;;;;;;;39.50;11.13;;;0.00;99.90;;;;;;5051246;28;20264;-66
2021/12/19 03:36:51;;;;;;;37.53;9.80;;;0.00;99.90;;;;;;5050804;28;20195;-66
2021/12/19 03:39:26;;;;;;;38.03;11.60;;;-0.10;99.90;;;;;;5051729;28;20182;-66
2021/12/19 03:41:56;;;;;;;22.43;9.03;;;0.00;99.90;;;;;;5049661;28;20443;-67
2021/12/19 03:44:22;;;;;;;26.17;11.10;;;-0.10;99.90;;;;;;5048594;28;20764;-67
2021/12/19 03:46:48;;;;;;;41.83;11.10;;;0.00;99.90;;;;;;5052032;28;20463;-66
2021/12/19 03:49:17;;;;;;;35.47;10.20;;;0.00;99.90;;;;;;5053188;28;20917;-66
2021/12/19 03:51:43;;;;;;;32.10;11.33;;;0.00;99.90;;;;;;5053768;28;20541;-66
2021/12/19 03:54:08;;;;;;;22.87;8.60;;;0.00;99.90;;;;;;5050218;28;20424;-66
2021/12/19 03:56:34;;;;;;;28.43;8.20;;;0.00;99.90;;;;;;5057563;28;20196;-66
2021/12/19 03:59:00;;;;;;;28.80;9.00;;;0.00;99.90;;;;;;5056620;28;20185;-67
2021/12/19 04:01:26;;;;;;;19.00;8.47;;;-0.10;99.90;;;;;;5051903;28;20355;-67
2021/12/19 04:03:51;;;;;;;24.83;8.20;;;-0.10;99.90;;;;;;5048235;28;20684;-66
2021/12/19 04:06:17;;;;;;;23.30;8.47;;;-0.10;99.90;;;;;;5047955;28;20468;-66
2021/12/19 04:08:43;;;;;;;25.97;9.87;;;-0.10;99.90;;;;;;5048521;28;20196;-66
2021/12/19 04:11:09;;;;;;;45.57;11.07;;;-0.10;99.90;;;;;;5048745;28;20269;-66
2021/12/19 04:13:35;;;;;;;24.87;8.97;;;-0.10;99.90;;;;;;5052829;28;20209;-66
2021/12/19 04:16:01;;;;;;;42.70;9.23;;;0.00;99.90;;;;;;5051608;28;20436;-67
2021/12/19 04:18:27;;;;;;;21.30;7.97;;;-0.10;99.90;;;;;;5049919;28;20485;-66
2021/12/19 04:20:52;;;;;;;26.57;10.50;;;0.00;99.90;;;;;;5052390;28;20248;-66
2021/12/19 04:23:18;;;;;;;32.13;10.73;;;0.00;99.90;;;;;;5055921;28;20963;-66
2021/12/19 04:25:44;;;;;;;37.37;10.57;;;0.00;99.90;;;;;;5053537;28;20296;-66
2021/12/19 04:28:10;;;;;;;27.43;9.47;;;-0.10;99.90;;;;;;5056576;28;20572;-67
2021/12/19 04:30:35;;;;;;;50.63;10.70;;;-0.10;99.90;;;;;;5056699;28;20188;-67
2021/12/19 04:33:05;;;;;;;33.53;11.33;;;-0.10;99.90;;;;;;5055803;28;20528;-67
2021/12/19 04:35:34;;;;;;;30.17;10.00;;;-0.10;99.90;;;;;;5053503;28;20182;-66
2021/12/19 04:44:26;;;;;;;29.97;11.27;;;0.00;99.90;;;;;;5053981;28;20474;-66
2021/12/19 04:52:03;;;;;;;22.40;9.60;;;-0.10;99.90;;;;;;5056959;28;20764;-66
2021/12/19 04:57:28;;;;;;;21.20;8.37;;;-0.10;99.90;;;;;;5044807;28;20503;-67
2021/12/19 05:05:18;;;;;;;45.90;10.33;;;0.00;99.90;;;;;;5051542;28;20186;-66
2021/12/19 05:15:51;;;;;;;37.03;9.30;;;-0.10;99.90;;;;;;5053971;28;20422;-66
2021/12/19 05:18:18;;;;;;;20.33;7.53;;;-0.20;99.90;;;;;;5052688;28;20423;-66
2021/12/19 05:20:53;;;;;;;31.80;7.67;;;-0.30;99.90;;;;;;5062514;28;20534;-66
2021/12/19 05:24:18;;;;;;;24.60;9.33;;;-0.20;99.90;;;;;;5053445;28;20420;-66
2021/12/19 05:26:08;;;;;;;29.40;8.67;;;-0.20;99.90;;;;;;5036184;28;20547;-66
2021/12/19 05:28:34;;;;;;;27.30;9.37;;;-0.20;99.90;;;;;;5051164;28;20524;-66
2021/12/19 05:30:59;;;;;;;29.07;10.00;;;-0.10;99.90;;;;;;5054698;28;20186;-66
2021/12/19 05:33:25;;;;;;;20.90;10.13;;;-0.10;99.90;;;;;;5058717;28;20211;-66
2021/12/19 05:46:48;;;;;;;31.13;10.53;;;-0.20;99.90;;;;;;5051906;28;20466;-67
2021/12/19 05:49:14;;;;;;;30.87;9.53;;;-0.20;99.90;;;;;;5057038;28;20428;-67
2021/12/19 05:51:39;;;;;;;23.67;8.57;;;-0.20;99.90;;;;;;5061856;28;20189;-67
2021/12/19 05:54:06;;;;;;;34.17;10.33;;;-0.20;99.90;;;;;;5056750;28;20190;-67
2021/12/19 05:56:32;;;;;;;23.97;9.37;;;-0.20;99.90;;;;;;5049631;28;20181;-68
2021/12/19 05:58:58;;;;;;;18.60;8.17;;;-0.20;99.90;;;;;;5050689;28;20857;-67
2021/12/19 06:01:23;;;;;;;33.80;8.73;;;-0.30;99.90;;;;;;5049587;28;20194;-67
2021/12/19 06:03:49;;;;;;;21.17;9.20;;;-0.20;99.90;;;;;;5050533;28;20575;-67
2021/12/19 06:06:15;;;;;;;23.27;8.80;;;-0.30;99.90;;;;;;5051355;28;20241;-67
2021/12/19 06:08:41;;;;;;;24.87;9.67;;;-0.30;99.90;;;;;;5052793;28;20455;-67
2021/12/19 06:11:07;;;;;;;25.93;9.73;;;-0.30;99.90;;;;;;5050716;28;20189;-67
2021/12/19 06:13:33;;;;;;;29.87;9.57;;;-0.30;99.90;;;;;;5052570;28;20467;-67
2021/12/19 06:15:58;;;;;;;25.20;9.60;;;-0.20;99.90;;;;;;5051734;28;20441;-67
2021/12/19 06:18:24;;;;;;;34.60;10.83;;;-0.20;99.90;;;;;;5049816;28;20189;-67
2021/12/19 06:20:50;;;;;;;29.43;8.60;;;-0.20;99.90;;;;;;5054823;28;20205;-67
2021/12/19 06:23:16;;;;;;;27.10;8.43;;;-0.20;99.90;;;;;;5052767;28;20491;-67
2021/12/19 06:25:45;;;;;;;29.00;8.47;;;-0.30;99.90;;;;;;5055246;28;20324;-67
2021/12/19 06:28:16;;;;;;;22.33;10.90;;;-0.20;99.90;;;;;;5050153;28;20489;-67
2021/12/19 06:30:42;;;;;;;25.07;9.90;;;-0.30;99.90;;;;;;5056433;28;20642;-67
2021/12/19 06:33:08;;;;;;;35.70;9.73;;;-0.30;99.90;;;;;;5054144;28;20768;-67
2021/12/19 06:35:34;;;;;;;32.00;10.80;;;-0.20;99.90;;;;;;5051051;28;20424;-67
2021/12/19 06:38:00;;;;;;;22.50;7.80;;;-0.20;99.90;;;;;;5051201;28;20470;-67
2021/12/19 06:40:26;;;;;;;31.27;9.00;;;-0.20;99.90;;;;;;5056298;28;20428;-67
2021/12/19 06:42:51;;;;;;;26.67;8.40;;;-0.30;99.90;;;;;;5054762;28;20198;-67
2021/12/19 06:45:18;;;;;;;29.60;8.80;;;-0.30;99.90;;;;;;5059348;28;20478;-67
2021/12/19 06:47:43;;;;;;;32.07;8.50;;;-0.30;99.90;;;;;;5054785;28;20192;-67
2021/12/19 06:50:12;;;;;;;41.73;10.33;;;-0.40;99.90;;;;;;5049106;28;20500;-67
2021/12/19 06:52:39;;;;;;;25.53;8.87;;;-0.30;99.90;;;;;;5049704;28;20184;-67
2021/12/19 06:55:06;;;;;;;34.13;8.70;;;-0.30;99.90;;;;;;5049345;28;20428;-67
2021/12/19 06:57:31;;;;;;;18.80;7.77;;;-0.40;99.90;;;;;;5050011;28;20431;-67
2021/12/19 06:59:57;;;;;;;22.27;7.87;;;-0.20;99.90;;;;;;5049085;28;20417;-67
2021/12/19 07:02:23;;;;;;;45.50;9.60;;;-0.30;99.90;;;;;;5049654;28;20224;-67
2021/12/19 07:04:49;;;;;;;33.83;10.70;;;-0.30;99.90;;;;;;5049029;28;20227;-67
2021/12/19 07:07:15;;;;;;;23.33;8.23;;;-0.30;99.90;;;;;;5048655;28;20468;-67
2021/12/19 07:09:40;;;;;;;22.20;8.90;;;-0.40;99.90;;;;;;5051883;28;20268;-67
2021/12/19 07:12:07;;;;;;;52.93;9.80;;;-0.40;99.90;;;;;;5055057;28;20188;-67
2021/12/19 07:14:33;;;;;;;30.80;10.93;;;-0.40;99.90;;;;;;5052704;28;20300;-67
2021/12/19 07:16:58;;;;;;;26.50;9.60;;;-0.40;99.90;;;;;;5051421;28;20507;-67
2021/12/19 07:19:24;;;;;;;23.07;6.50;;;-0.40;99.90;;;;;;5052414;28;20201;-67
2021/12/19 07:21:50;;;;;;;17.77;8.30;;;-0.40;99.90;;;;;;5052609;28;20627;-67
2021/12/19 07:24:16;;;;;;;20.60;8.17;;;-0.40;99.90;;;;;;5048695;28;20189;-67
2021/12/19 07:26:42;;;;;;;31.43;10.33;;;-0.40;99.90;;;;;;5055227;28;20717;-67
2021/12/19 07:29:08;;;;;;;30.10;9.83;;;-0.40;99.90;;;;;;5056967;28;20281;-67
2021/12/19 07:31:36;;;;;;;23.60;7.73;;;-0.40;99.90;;;;;;5055660;28;20264;-67
2021/12/19 07:34:03;;;;;;;20.97;7.13;;;-0.30;99.90;;;;;;5057727;28;20428;-67
2021/12/19 07:36:36;;;;;;;18.23;6.60;;;-0.40;99.90;;;;;;5057155;28;20420;-67
2021/12/19 07:39:08;;;;;;;12.23;5.40;;;-0.40;99.90;;;;;;5051003;28;20523;-67
2021/12/19 07:41:34;;;;;;;26.67;6.60;;;-0.40;99.90;;;;;;5048294;28;20487;-67
2021/12/19 07:44:00;;;;;;;19.33;6.40;;;-0.40;99.90;;;;;;5048412;28;20500;-66
2021/12/19 07:46:26;;;;;;;32.97;8.10;;;-0.40;99.90;;;;;;5047977;28;20213;-66
2021/12/19 07:48:51;;;;;;;13.47;6.77;;;-0.40;99.90;;;;;;5048834;28;20710;-67
2021/12/19 07:51:17;;;;;;;28.20;6.77;;;-0.50;99.90;;;;;;5050274;28;20181;-67
2021/12/19 07:53:42;;;;;;;20.03;7.90;;;-0.50;99.90;;;;;;5049094;28;20185;-67
2021/12/19 07:56:08;;;;;;;22.10;7.37;;;-0.50;99.90;;;;;;5049641;28;20633;-67
2021/12/19 07:58:34;;;;;;;15.80;6.00;;;-0.40;99.90;;;;;;5050460;28;20186;-67
2021/12/19 08:00:59;;;;;;;19.63;7.20;;;-0.40;99.90;;;;;;5053288;28;20192;-67
2021/12/19 08:03:25;;;;;;;17.37;7.17;;;-0.40;99.90;;;;;;5050672;28;20202;-66
2021/12/19 08:05:51;;;;;;;19.90;6.80;;;-0.40;99.90;;;;;;5054538;28;20219;-66
2021/12/19 08:08:21;;;;;;;17.47;5.73;;;-0.30;99.90;;;;;;5051530;28;20189;-66
2021/12/19 08:13:13;;;;;;;17.50;6.77;;;-0.30;99.90;;;;;;5052306;28;20477;-66
2021/12/19 08:15:39;;;;;;;19.80;6.63;;;-0.40;99.90;;;;;;5057073;28;20451;-66
2021/12/19 08:18:06;;;;;;;12.47;6.07;;;-0.40;99.90;;;;;;5052610;28;20479;-67
2021/12/19 08:20:32;;;;;;;21.57;5.40;;;-0.30;99.90;;;;;;5058294;28;20303;-67
2021/12/19 08:22:58;;;;;;;18.27;7.13;;;-0.40;99.90;;;;;;5053296;28;20451;-67
2021/12/19 08:25:25;;;;;;;11.23;5.60;;;-0.40;99.90;;;;;;5058085;28;20487;-67
2021/12/19 08:27:52;;;;;;;11.37;4.93;;;-0.30;99.90;;;;;;5054481;28;20178;-67
2021/12/19 08:30:18;;;;;;;19.77;4.60;;;-0.30;99.90;;;;;;5059223;28;20499;-67
2021/12/19 08:32:44;;;;;;;17.30;6.13;;;-0.20;99.90;;;;;;5054681;28;20435;-67
2021/12/19 08:35:11;;;;;;;11.40;4.30;;;-0.20;99.90;;;;;;5053877;28;20412;-67
2021/12/19 08:37:37;;;;;;;15.03;5.20;;;-0.20;99.90;;;;;;5047018;28;20182;-66
2021/12/19 08:40:04;;;;;;;13.10;6.10;;;-0.30;99.90;;;;;;5047664;28;20446;-66
2021/12/19 08:42:32;;;;;;;19.57;5.80;;;-0.30;99.90;;;;;;5047451;28;20960;-67
2021/12/19 08:44:59;;;;;;;24.00;6.00;;;-0.20;99.90;;;;;;5047691;28;20908;-67
2021/12/19 08:47:24;;;;;;;14.47;5.80;;;-0.20;99.90;;;;;;5048003;28;20426;-67
2021/12/19 08:49:51;;;;;;;16.73;6.33;;;-0.20;99.90;;;;;;5050006;28;20424;-67
2021/12/19 08:52:16;;;;;;;14.60;5.30;;;-0.20;99.90;;;;;;5048638;28;20189;-67
2021/12/19 08:54:42;;;;;;;10.77;4.27;;;-0.10;99.90;;;;;;5050986;28;20424;-66
2021/12/19 08:57:07;;;;;;;14.97;4.00;;;-0.20;99.90;;;;;;5048828;28;20689;-66
2021/12/19 08:59:33;;;;;;;18.73;6.30;;;-0.20;99.90;;;;;;5054839;28;20260;-66
2021/12/19 09:02:01;;;;;;;19.37;6.93;;;-0.20;99.90;;;;;;5050385;28;20194;-66
2021/12/19 09:04:27;;;;;;;20.77;6.13;;;-0.20;99.90;;;;;;5054648;28;20181;-66
2021/12/19 09:06:56;;;;;;;16.60;5.67;;;-0.10;99.90;;;;;;5054200;28;20471;-66
2021/12/19 09:09:22;;;;;;;14.00;6.10;;;-0.20;99.90;;;;;;5055182;28;20762;-66
2021/12/19 09:11:47;;;;;;;17.87;7.77;;;-0.20;99.90;;;;;;5055125;28;20412;-67
2021/12/19 09:14:13;;;;;;;18.70;5.57;;;-0.20;99.90;;;;;;5050413;28;20542;-66
2021/12/19 09:16:39;;;;;;;18.10;6.27;;;-0.10;99.90;;;;;;5054492;28;20193;-66
2021/12/19 09:19:04;;;;;;;20.10;7.13;;;-0.10;99.90;;;;;;5049858;28;20185;-66
2021/12/19 09:21:30;;;;;;;12.80;5.70;;;0.00;99.90;;;;;;5056188;28;20216;-66
2021/12/19 09:23:55;;;;;;;22.20;6.70;;;0.00;99.90;;;;;;5056542;28;20185;-66
2021/12/19 09:26:21;;;;;;;16.00;7.00;;;0.00;99.90;;;;;;5049581;28;20501;-66
2021/12/19 09:28:47;;;;;;;14.57;5.30;;;0.10;99.90;;;;;;5050387;28;20255;-66
2021/12/19 09:31:12;;;;;;;19.37;6.70;;;0.10;99.90;;;;;;5049560;28;20178;-66
2021/12/19 09:33:38;;;;;;;15.47;6.70;;;0.00;99.90;;;;;;5049305;28;20644;-66
2021/12/19 09:36:04;;;;;;;14.63;5.83;;;0.10;99.90;;;;;;5050056;28;20268;-66
2021/12/19 09:38:30;;;;;;;11.07;4.93;;;0.10;99.90;;;;;;5050275;28;20280;-66
2021/12/19 09:41:00;;;;;;;10.40;5.00;;;0.10;99.90;;;;;;5049205;28;20239;-66
2021/12/19 09:43:42;;;;;;;15.30;6.57;;;0.10;99.90;;;;;;5052832;28;20430;-66
2021/12/19 09:46:16;;;;;;;15.40;6.40;;;0.00;99.90;;;;;;5051648;28;20910;-66
2021/12/19 09:48:43;;;;;;;23.23;8.33;;;0.00;99.90;;;;;;5045477;28;20412;-67
2021/12/19 09:51:09;;;;;;;21.73;7.57;;;0.00;99.90;;;;;;5052649;28;20413;-66
2021/12/19 09:53:35;;;;;;;13.23;5.47;;;0.10;99.90;;;;;;5045786;28;20424;-66
2021/12/19 09:56:01;;;;;;;16.77;5.00;;;0.10;99.90;;;;;;5054112;28;20506;-66
2021/12/19 09:58:30;;;;;;;13.50;5.20;;;0.10;99.90;;;;;;5053173;28;21215;-66
2021/12/19 10:00:56;;;;;;;12.10;4.83;;;0.10;99.90;;;;;;5051791;28;20192;-66
2021/12/19 10:03:22;;;;;;;12.33;4.80;;;0.10;99.90;;;;;;5049267;28;20428;-66
2021/12/19 10:05:48;;;;;;;17.67;4.87;;;0.10;99.90;;;;;;5052635;28;20215;-66
2021/12/19 10:08:23;;;;;;;11.93;4.80;;;0.20;99.90;;;;;;5050447;28;20259;-66
2021/12/19 10:10:56;;;;;;;11.40;5.63;;;0.10;99.90;;;;;;5049151;28;20772;-66
2021/12/19 10:13:33;;;;;;;6.93;3.37;;;0.10;99.90;;;;;;5043566;28;20420;-66
2021/12/19 10:15:59;;;;;;;9.70;4.07;;;0.10;99.90;;;;;;5050040;28;20407;-66
2021/12/19 10:18:25;;;;;;;14.50;5.33;;;0.00;99.90;;;;;;5049638;28;20711;-66
2021/12/19 10:20:57;;;;;;;27.23;3.27;;;0.10;99.90;;;;;;5055091;28;20213;-66
2021/12/19 10:23:26;;;;;;;6.77;3.43;;;0.10;99.90;;;;;;5049242;28;20182;-66
2021/12/19 10:25:58;;;;;;;6.30;3.20;;;0.10;99.90;;;;;;5048560;28;20952;-66
2021/12/19 10:28:24;;;;;;;14.60;4.63;;;0.10;99.90;;;;;;5049898;28;20469;-66
2021/12/19 10:30:50;;;;;;;10.60;5.57;;;0.10;99.90;;;;;;5049439;28;20504;-66
2021/12/19 10:33:22;;;;;;;6.60;3.80;;;0.10;99.90;;;;;;5049512;28;20850;-66
2021/12/19 10:35:57;;;;;;;12.20;3.60;;;0.20;99.90;;;;;;5048563;28;20423;-66
2021/12/19 10:38:42;;;;;;;7.17;3.10;;;0.30;99.90;;;;;;5051350;28;20511;-66
2021/12/19 10:41:13;;;;;;;8.07;3.80;;;0.30;99.90;;;;;;5049975;28;20430;-66
2021/12/19 10:43:50;;;;;;;12.23;4.40;;;0.30;99.90;;;;;;5049705;28;20420;-66
2021/12/19 10:46:29;;;;;;;12.30;5.33;;;0.30;99.90;;;;;;5052541;28;20807;-66
2021/12/19 10:48:57;;;;;;;10.63;4.60;;;0.30;99.90;;;;;;5046297;28;20637;-66
2021/12/19 10:51:24;;;;;;;20.17;4.47;;;0.30;99.90;;;;;;5050628;28;20423;-66
2021/12/19 10:53:53;;;;;;;11.80;5.27;;;0.20;99.90;;;;;;5051943;28;20519;-66
2021/12/19 10:56:23;;;;;;;23.73;6.80;;;0.30;99.90;;;;;;5050764;28;20512;-66
2021/12/19 10:58:57;;;;;;;8.57;4.73;;;0.30;99.90;;;;;;5051691;28;20670;-66
2021/12/19 11:01:31;;;;;;;10.60;4.83;;;0.40;99.90;;;;;;5055778;28;20418;-66
2021/12/19 11:04:09;;;;;;;10.53;3.70;;;0.40;99.90;;;;;;5050133;28;20499;-66
2021/12/19 11:06:44;;;;;;;12.53;4.17;;;0.30;99.90;;;;;;5055680;28;21113;-66
2021/12/19 11:09:18;;;;;;;11.20;4.10;;;0.20;99.90;;;;;;5053299;28;20447;-66
2021/12/19 11:11:56;;;;;;;16.70;5.83;;;0.30;99.90;;;;;;5048096;28;20502;-66
2021/12/19 11:14:28;;;;;;;11.53;5.13;;;0.30;99.90;;;;;;5044643;28;20427;-66
2021/12/19 11:17:00;;;;;;;8.73;4.67;;;0.40;99.90;;;;;;5047999;28;20424;-66
2021/12/19 11:19:27;;;;;;;13.53;4.23;;;0.50;99.90;;;;;;5048533;28;20458;-66
2021/12/19 11:21:53;;;;;;;12.50;4.70;;;0.40;99.90;;;;;;5048886;28;20432;-66
2021/12/19 11:24:21;;;;;;;9.80;4.60;;;0.40;99.90;;;;;;5048115;28;20506;-66
2021/12/19 11:26:50;;;;;;;9.73;3.67;;;0.40;99.90;;;;;;5049433;28;21045;-66
2021/12/19 11:29:18;;;;;;;9.27;4.40;;;0.40;99.90;;;;;;5050440;28;20429;-66
2021/12/19 11:31:49;;;;;;;10.57;4.27;;;0.50;99.90;;;;;;5053302;28;20423;-66
2021/12/19 11:34:53;;;;;;;16.13;4.20;;;0.50;99.90;;;;;;5051060;28;20432;-66
2021/12/19 11:37:23;;;;;;;9.30;3.50;;;0.40;99.90;;;;;;5050906;28;20491;-66
2021/12/19 11:39:53;;;;;;;13.13;4.77;;;0.40;99.90;;;;;;5054714;28;20420;-66
2021/12/19 11:42:27;;;;;;;9.53;4.50;;;0.50;99.90;;;;;;5045010;28;20482;-66
2021/12/19 11:47:45;;;;;;;16.83;6.43;;;0.60;99.90;;;;;;5046921;28;20481;-66
2021/12/19 11:50:31;;;;;;;10.90;5.20;;;0.60;99.90;;;;;;5047264;28;20188;-66
2021/12/19 11:53:08;;;;;;;13.90;5.90;;;0.60;99.90;;;;;;5055681;28;20458;-66
2021/12/19 11:55:43;;;;;;;12.43;4.47;;;0.50;99.90;;;;;;5046039;28;20456;-64
2021/12/19 11:58:08;;;;;;;20.30;6.17;;;0.50;99.90;;;;;;5041691;28;20463;-66
2021/12/19 12:00:43;;;;;;;7.97;3.90;;;0.60;99.90;;;;;;5048319;28;20475;-66
2021/12/19 12:03:11;;;;;;;14.13;5.00;;;0.70;99.90;;;;;;5042969;28;20213;-65
2021/12/19 12:06:20;;;;;;;10.50;5.20;;;0.60;99.90;;;;;;5047561;28;20690;-68
2021/12/19 12:09:07;;;;;;;9.67;4.43;;;0.60;99.90;;;;;;5048008;28;20500;-69
2021/12/19 12:11:34;;;;;;;8.90;3.90;;;0.60;99.90;;;;;;5047756;28;20420;-67
2021/12/19 12:14:21;;;;;;;6.97;3.57;;;0.50;99.90;;;;;;5048736;28;20519;-67
2021/12/19 12:17:04;;;;;;;9.70;3.40;;;0.50;99.90;;;;;;5047711;28;20511;-64
2021/12/19 12:19:37;;;;;;;12.77;4.73;;;0.50;99.90;;;;;;5042349;28;20448;-64
2021/12/19 12:22:47;;;;;;;9.10;3.50;;;0.50;99.90;;;;;;5049710;28;20424;-70
2021/12/19 12:25:17;;;;;;;8.40;4.33;;;0.50;99.90;;;;;;5049057;28;20785;-71
2021/12/19 12:27:44;;;;;;;7.20;3.07;;;0.60;99.90;;;;;;5050338;28;20432;-71
2021/12/19 12:30:14;;;;;;;7.20;3.67;;;0.70;99.90;;;;;;5053748;28;20435;-73
2021/12/19 12:32:40;;;;;;;25.63;5.00;;;0.70;99.90;;;;;;5049019;28;20427;-72
2021/12/19 12:35:07;;;;;;;10.50;3.50;;;0.70;99.90;;;;;;5056690;28;20467;-65
2021/12/19 12:37:33;;;;;;;9.63;3.63;;;0.60;99.90;;;;;;5051343;28;20459;-73
2021/12/19 12:40:26;;;;;;;7.87;3.70;;;0.60;99.90;;;;;;5060129;28;20458;-73
2021/12/19 12:42:57;;;;;;;11.23;4.40;;;0.60;99.90;;;;;;5053802;28;20434;-72
2021/12/19 12:45:24;;;;;;;12.73;4.53;;;0.60;99.90;;;;;;5057626;28;20454;-71
2021/12/19 12:47:49;;;;;;;6.83;3.73;;;0.70;99.90;;;;;;5054458;28;20461;-75
2021/12/19 12:50:15;;;;;;;10.87;4.60;;;0.70;99.90;;;;;;5050766;28;20470;-72
2021/12/19 12:52:41;;;;;;;15.10;2.90;;;0.60;99.90;;;;;;5050733;28;20190;-72
2021/12/19 12:55:07;;;;;;;10.17;5.17;;;0.60;99.90;;;;;;5055888;28;20270;-73
2021/12/19 12:57:35;;;;;;;9.00;3.60;;;0.70;99.90;;;;;;5052424;28;20189;-72
2021/12/19 13:00:02;;;;;;;8.87;3.53;;;0.70;99.90;;;;;;5054152;28;20476;-72
2021/12/19 13:02:41;;;;;;;5.03;2.60;;;0.70;99.90;;;;;;5050086;28;20416;-74
2021/12/19 13:05:12;;;;;;;18.03;4.23;;;0.60;99.90;;;;;;5048622;28;21082;-75
2021/12/19 13:07:38;;;;;;;7.03;3.00;;;0.70;99.90;;;;;;5052198;28;20437;-72
2021/12/19 13:10:05;;;;;;;6.93;2.60;;;0.70;99.90;;;;;;5051794;28;20511;-73
2021/12/19 13:12:37;;;;;;;8.17;3.27;;;0.70;99.90;;;;;;5051432;28;21191;-69
2021/12/19 13:15:13;;;;;;;9.50;2.90;;;0.70;99.90;;;;;;5052053;28;20419;-73
2021/12/19 13:17:41;;;;;;;6.00;2.83;;;0.70;99.90;;;;;;5050630;28;20430;-70
2021/12/19 13:20:22;;;;;;;10.77;2.97;;;0.70;99.90;;;;;;5053946;28;20471;-70
2021/12/19 13:22:53;;;;;;;4.80;2.40;;;0.70;99.90;;;;;;5052702;28;20416;-69
2021/12/19 13:25:34;;;;;;;5.20;2.20;;;0.70;99.90;;;;;;5052273;28;20412;-70
2021/12/19 13:28:02;;;;;;;7.33;3.23;;;0.70;99.90;;;;;;5053914;28;20427;-70
2021/12/19 13:30:33;;;;;;;7.03;3.10;;;0.70;99.90;;;;;;5052643;28;20503;-70
2021/12/19 13:33:00;;;;;;;8.93;3.23;;;0.70;99.90;;;;;;5053274;28;20432;-70
2021/12/19 13:35:33;;;;;;;9.40;3.93;;;0.70;99.90;;;;;;5049516;28;20474;-69
2021/12/19 13:38:10;;;;;;;6.13;2.33;;;0.70;99.90;;;;;;5051228;28;20499;-70
2021/12/19 13:40:43;;;;;;;5.23;2.70;;;0.80;99.90;;;;;;5051268;28;20435;-69
2021/12/19 13:43:23;;;;;;;8.70;3.30;;;0.70;99.90;;;;;;5053118;28;20506;-70
2021/12/19 13:46:06;;;;;;;12.93;4.27;;;0.70;99.90;;;;;;5053395;28;20467;-69
2021/12/19 13:48:54;;;;;;;7.43;2.70;;;0.60;99.90;;;;;;5050760;28;20430;-69
2021/12/19 13:51:32;;;;;;;11.73;3.33;;;0.60;99.90;;;;;;5055463;28;20803;-70
2021/12/19 13:54:00;;;;;;;11.40;4.33;;;0.60;99.90;;;;;;5051754;28;20428;-70
2021/12/19 13:56:31;;;;;;;20.60;4.43;;;0.60;99.90;;;;;;5054968;28;20515;-70